Terminal Aerodrome Forecast
Issued by NWS Charleston, WV

Current Version | Previous Version | Graphics & Text | Print | Product List | Glossary Off
Versions: 1 2 3 4 5 6 7 8 9 10 11 12 13 14 15 16 17 18 19 20

000
FTUS41 KRLX 300859 AAA
TAFHTS
TAF AMD
KHTS 300859Z 3009/0106 VRB03KT 6SM BR SCT009 BKN035
      TEMPO 3009/3012 BKN009
     FM301300 22004KT P6SM BKN040
     FM301700 24007KT P6SM VCTS BKN040CB
     FM010200 23004KT P6SM BKN040=

USA.gov is the U.S. government's official web portal to all federal, state and local government web resources and services.